sensor_id;sensor_type;location;lat;lon;timestamp;temperature;humidity
20233;DHT22;37438;55.674;13.074;2023-04-01T00:02:37;3.40;99.90
20233;DHT22;37438;55.674;13.074;2023-04-01T00:05:41;3.20;99.90
20233;DHT22;37438;55.674;13.074;2023-04-01T00:08:46;3.30;99.90
20233;DHT22;37438;55.674;13.074;2023-04-01T00:11:50;3.30;99.90
20233;DHT22;37438;55.674;13.074;2023-04-01T00:14:55;3.10;99.90
20233;DHT22;37438;55.674;13.074;2023-04-01T00:17:59;3.00;43.20
20233;DHT22;37438;55.674;13.074;2023-04-01T00:21:04;3.10;99.90
20233;DHT22;37438;55.674;13.074;2023-04-01T00:24:09;3.10;72.20
20233;DHT22;37438;55.674;13.074;2023-04-01T00:27:14;3.20;99.90
20233;DHT22;37438;55.674;13.074;2023-04-01T00:30:20;3.10;99.90
20233;DHT22;37438;55.674;13.074;2023-04-01T00:33:25;3.20;99.90
20233;DHT22;37438;55.674;13.074;2023-04-01T00:36:29;3.10;75.40
20233;DHT22;37438;55.674;13.074;2023-04-01T00:39:34;3.00;1.00
20233;DHT22;37438;55.674;13.074;2023-04-01T00:42:38;3.00;69.70
20233;DHT22;37438;55.674;13.074;2023-04-01T00:45:44;3.00;1.00
20233;DHT22;37438;55.674;13.074;2023-04-01T00:48:49;2.90;99.90
20233;DHT22;37438;55.674;13.074;2023-04-01T00:51:57;2.90;99.90
20233;DHT22;37438;55.674;13.074;2023-04-01T00:55:03;2.90;99.90
20233;DHT22;37438;55.674;13.074;2023-04-01T00:58:09;3.00;99.90
20233;DHT22;37438;55.674;13.074;2023-04-01T01:01:14;2.90;90.80
20233;DHT22;37438;55.674;13.074;2023-04-01T01:04:32;2.90;99.90
20233;DHT22;37438;55.674;13.074;2023-04-01T01:11:04;2.80;1.00
20233;DHT22;37438;55.674;13.074;2023-04-01T01:14:20;2.90;31.10
20233;DHT22;37438;55.674;13.074;2023-04-01T01:17:27;2.80;99.90
20233;DHT22;37438;55.674;13.074;2023-04-01T01:26:46;2.90;99.90
20233;DHT22;37438;55.674;13.074;2023-04-01T01:30:10;2.90;27.50
20233;DHT22;37438;55.674;13.074;2023-04-01T01:36:21;2.90;40.50
20233;DHT22;37438;55.674;13.074;2023-04-01T01:39:26;2.80;12.30
20233;DHT22;37438;55.674;13.074;2023-04-01T01:42:34;2.70;1.00
20233;DHT22;37438;55.674;13.074;2023-04-01T01:45:42;2.80;13.40
20233;DHT22;37438;55.674;13.074;2023-04-01T01:48:49;2.70;1.00
20233;DHT22;37438;55.674;13.074;2023-04-01T01:51:55;2.80;99.90
20233;DHT22;37438;55.674;13.074;2023-04-01T01:55:00;2.80;99.90
20233;DHT22;37438;55.674;13.074;2023-04-01T01:58:20;2.80;99.90
20233;DHT22;37438;55.674;13.074;2023-04-01T02:01:26;2.80;99.90
20233;DHT22;37438;55.674;13.074;2023-04-01T02:04:38;2.80;99.90
20233;DHT22;37438;55.674;13.074;2023-04-01T02:07:45;2.70;99.90
20233;DHT22;37438;55.674;13.074;2023-04-01T02:11:01;2.80;99.90
20233;DHT22;37438;55.674;13.074;2023-04-01T02:17:17;2.80;1.00
20233;DHT22;37438;55.674;13.074;2023-04-01T02:20:22;2.70;99.90
20233;DHT22;37438;55.674;13.074;2023-04-01T02:23:27;2.60;99.90
20233;DHT22;37438;55.674;13.074;2023-04-01T02:26:31;2.70;99.90
20233;DHT22;37438;55.674;13.074;2023-04-01T02:29:36;2.70;99.90
20233;DHT22;37438;55.674;13.074;2023-04-01T02:32:43;2.70;99.90
20233;DHT22;37438;55.674;13.074;2023-04-01T02:35:48;2.60;99.90
20233;DHT22;37438;55.674;13.074;2023-04-01T02:38:53;2.60;1.00
20233;DHT22;37438;55.674;13.074;2023-04-01T02:41:58;2.60;1.60
20233;DHT22;37438;55.674;13.074;2023-04-01T02:45:03;2.70;1.00
20233;DHT22;37438;55.674;13.074;2023-04-01T02:48:08;2.70;1.00
20233;DHT22;37438;55.674;13.074;2023-04-01T02:51:13;2.70;1.00
20233;DHT22;37438;55.674;13.074;2023-04-01T02:54:21;2.70;99.90
20233;DHT22;37438;55.674;13.074;2023-04-01T02:57:25;2.60;99.90
20233;DHT22;37438;55.674;13.074;2023-04-01T03:00:30;2.60;1.00
20233;DHT22;37438;55.674;13.074;2023-04-01T03:03:34;2.60;99.90
20233;DHT22;37438;55.674;13.074;2023-04-01T03:06:38;2.70;99.90
20233;DHT22;37438;55.674;13.074;2023-04-01T03:09:43;2.60;99.90
20233;DHT22;37438;55.674;13.074;2023-04-01T03:12:47;2.60;99.90
20233;DHT22;37438;55.674;13.074;2023-04-01T03:15:52;2.70;99.90
20233;DHT22;37438;55.674;13.074;2023-04-01T03:18:57;2.60;99.90
20233;DHT22;37438;55.674;13.074;2023-04-01T03:22:03;2.60;99.90
20233;DHT22;37438;55.674;13.074;2023-04-01T03:25:08;2.60;99.90
20233;DHT22;37438;55.674;13.074;2023-04-01T03:28:14;2.70;99.90
20233;DHT22;37438;55.674;13.074;2023-04-01T03:31:19;2.60;99.90
20233;DHT22;37438;55.674;13.074;2023-04-01T03:34:31;2.60;99.90
20233;DHT22;37438;55.674;13.074;2023-04-01T03:37:35;2.60;99.90
20233;DHT22;37438;55.674;13.074;2023-04-01T03:40:41;2.70;99.90
20233;DHT22;37438;55.674;13.074;2023-04-01T03:43:46;2.60;99.90
20233;DHT22;37438;55.674;13.074;2023-04-01T03:46:50;2.60;84.20
20233;DHT22;37438;55.674;13.074;2023-04-01T03:49:55;2.50;29.70
20233;DHT22;37438;55.674;13.074;2023-04-01T03:53:00;2.60;18.90
20233;DHT22;37438;55.674;13.074;2023-04-01T03:56:05;2.50;1.00
20233;DHT22;37438;55.674;13.074;2023-04-01T03:59:11;2.50;99.90
20233;DHT22;37438;55.674;13.074;2023-04-01T04:02:16;2.50;99.90
20233;DHT22;37438;55.674;13.074;2023-04-01T04:05:20;2.50;1.00
20233;DHT22;37438;55.674;13.074;2023-04-01T04:08:25;2.60;1.00
20233;DHT22;37438;55.674;13.074;2023-04-01T04:11:30;2.50;1.00
20233;DHT22;37438;55.674;13.074;2023-04-01T04:14:35;2.60;99.90
20233;DHT22;37438;55.674;13.074;2023-04-01T04:17:40;2.60;1.00
20233;DHT22;37438;55.674;13.074;2023-04-01T04:20:45;2.60;1.00
20233;DHT22;37438;55.674;13.074;2023-04-01T04:23:52;2.50;1.00
20233;DHT22;37438;55.674;13.074;2023-04-01T04:26:57;2.50;1.00
20233;DHT22;37438;55.674;13.074;2023-04-01T04:30:03;2.40;99.90
20233;DHT22;37438;55.674;13.074;2023-04-01T04:33:07;2.40;99.90
20233;DHT22;37438;55.674;13.074;2023-04-01T04:36:12;2.40;99.90
20233;DHT22;37438;55.674;13.074;2023-04-01T04:39:16;2.40;99.90
20233;DHT22;37438;55.674;13.074;2023-04-01T04:42:22;2.40;87.00
20233;DHT22;37438;55.674;13.074;2023-04-01T04:45:31;2.40;29.80
20233;DHT22;37438;55.674;13.074;2023-04-01T04:48:36;2.40;58.20
20233;DHT22;37438;55.674;13.074;2023-04-01T04:51:41;2.40;1.00
20233;DHT22;37438;55.674;13.074;2023-04-01T04:54:45;2.40;99.90
20233;DHT22;37438;55.674;13.074;2023-04-01T04:57:50;2.40;99.90
20233;DHT22;37438;55.674;13.074;2023-04-01T05:00:55;2.40;99.90
20233;DHT22;37438;55.674;13.074;2023-04-01T05:04:08;2.40;99.90
20233;DHT22;37438;55.674;13.074;2023-04-01T05:07:12;2.40;99.90
20233;DHT22;37438;55.674;13.074;2023-04-01T05:10:17;2.40;99.90
20233;DHT22;37438;55.674;13.074;2023-04-01T05:13:21;2.30;99.90
20233;DHT22;37438;55.674;13.074;2023-04-01T05:16:26;2.30;99.90
20233;DHT22;37438;55.674;13.074;2023-04-01T05:19:30;2.40;99.90
20233;DHT22;37438;55.674;13.074;2023-04-01T05:22:35;2.30;99.90
20233;DHT22;37438;55.674;13.074;2023-04-01T05:25:40;2.30;85.80
20233;DHT22;37438;55.674;13.074;2023-04-01T05:28:45;2.30;1.00
20233;DHT22;37438;55.674;13.074;2023-04-01T05:31:49;2.30;1.00
20233;DHT22;37438;55.674;13.074;2023-04-01T05:34:53;2.20;99.90
20233;DHT22;37438;55.674;13.074;2023-04-01T05:37:58;2.20;99.90
20233;DHT22;37438;55.674;13.074;2023-04-01T05:41:03;2.20;99.90
20233;DHT22;37438;55.674;13.074;2023-04-01T05:44:11;2.30;99.90
20233;DHT22;37438;55.674;13.074;2023-04-01T05:47:16;2.30;99.90
20233;DHT22;37438;55.674;13.074;2023-04-01T05:50:21;2.30;99.90
20233;DHT22;37438;55.674;13.074;2023-04-01T05:53:26;2.40;1.00
20233;DHT22;37438;55.674;13.074;2023-04-01T05:56:30;2.40;1.00
20233;DHT22;37438;55.674;13.074;2023-04-01T05:59:35;2.40;99.90
20233;DHT22;37438;55.674;13.074;2023-04-01T06:02:40;2.30;99.90
20233;DHT22;37438;55.674;13.074;2023-04-01T06:05:46;2.40;99.90
20233;DHT22;37438;55.674;13.074;2023-04-01T06:08:51;2.30;99.90
20233;DHT22;37438;55.674;13.074;2023-04-01T06:15:31;2.20;1.00
20233;DHT22;37438;55.674;13.074;2023-04-01T06:18:45;2.20;1.00
20233;DHT22;37438;55.674;13.074;2023-04-01T06:58:44;2.90;99.90
20233;DHT22;37438;55.674;13.074;2023-04-01T07:01:50;2.80;99.90
20233;DHT22;37438;55.674;13.074;2023-04-01T07:04:57;3.00;99.90
20233;DHT22;37438;55.674;13.074;2023-04-01T07:08:06;3.30;99.90
20233;DHT22;37438;55.674;13.074;2023-04-01T07:11:17;3.40;99.90
20233;DHT22;37438;55.674;13.074;2023-04-01T07:14:45;3.40;99.90
20233;DHT22;37438;55.674;13.074;2023-04-01T07:17:54;3.40;99.90
20233;DHT22;37438;55.674;13.074;2023-04-01T07:20:59;3.30;99.90
20233;DHT22;37438;55.674;13.074;2023-04-01T07:24:05;3.40;99.90
20233;DHT22;37438;55.674;13.074;2023-04-01T07:27:19;3.30;99.90
20233;DHT22;37438;55.674;13.074;2023-04-01T07:30:23;3.60;99.90
20233;DHT22;37438;55.674;13.074;2023-04-01T07:36:56;3.70;99.90
20233;DHT22;37438;55.674;13.074;2023-04-01T07:49:52;4.50;99.90
20233;DHT22;37438;55.674;13.074;2023-04-01T07:53:12;4.70;99.90
20233;DHT22;37438;55.674;13.074;2023-04-01T07:56:28;4.90;99.90
20233;DHT22;37438;55.674;13.074;2023-04-01T08:06:20;5.00;99.90
20233;DHT22;37438;55.674;13.074;2023-04-01T08:16:26;5.90;99.90
20233;DHT22;37438;55.674;13.074;2023-04-01T08:23:13;5.40;99.90
20233;DHT22;37438;55.674;13.074;2023-04-01T08:26:23;5.10;99.90
20233;DHT22;37438;55.674;13.074;2023-04-01T08:29:36;5.70;99.90
20233;DHT22;37438;55.674;13.074;2023-04-01T08:32:44;6.10;99.90
20233;DHT22;37438;55.674;13.074;2023-04-01T08:35:56;6.20;99.90
20233;DHT22;37438;55.674;13.074;2023-04-01T08:39:04;6.50;99.90
20233;DHT22;37438;55.674;13.074;2023-04-01T08:55:40;7.20;99.90
20233;DHT22;37438;55.674;13.074;2023-04-01T09:05:47;7.30;99.90
20233;DHT22;37438;55.674;13.074;2023-04-01T09:22:25;8.40;72.30
20233;DHT22;37438;55.674;13.074;2023-04-01T09:25:58;9.00;50.50
20233;DHT22;37438;55.674;13.074;2023-04-01T09:38:55;9.10;1.00
20233;DHT22;37438;55.674;13.074;2023-04-01T09:52:18;8.60;1.00
20233;DHT22;37438;55.674;13.074;2023-04-01T10:21:45;9.10;99.90
20233;DHT22;37438;55.674;13.074;2023-04-01T10:28:12;10.90;99.90
20233;DHT22;37438;55.674;13.074;2023-04-01T10:41:44;10.80;99.90
20233;DHT22;37438;55.674;13.074;2023-04-01T10:48:44;9.90;74.20
20233;DHT22;37438;55.674;13.074;2023-04-01T10:55:25;11.30;17.60
20233;DHT22;37438;55.674;13.074;2023-04-01T11:25:51;11.20;1.00
20233;DHT22;37438;55.674;13.074;2023-04-01T11:36:10;11.30;1.00
20233;DHT22;37438;55.674;13.074;2023-04-01T11:39:19;12.20;1.00
20233;DHT22;37438;55.674;13.074;2023-04-01T11:46:10;11.60;1.00
20233;DHT22;37438;55.674;13.074;2023-04-01T11:58:44;11.60;1.00
20233;DHT22;37438;55.674;13.074;2023-04-01T12:05:54;11.90;1.00
20233;DHT22;37438;55.674;13.074;2023-04-01T12:09:04;11.70;1.00
20233;DHT22;37438;55.674;13.074;2023-04-01T12:22:04;12.50;1.00
20233;DHT22;37438;55.674;13.074;2023-04-01T12:25:55;12.90;1.00
20233;DHT22;37438;55.674;13.074;2023-04-01T12:38:41;13.80;1.00
20233;DHT22;37438;55.674;13.074;2023-04-01T12:45:16;13.30;1.00
20233;DHT22;37438;55.674;13.074;2023-04-01T12:48:26;13.70;1.00
20233;DHT22;37438;55.674;13.074;2023-04-01T12:51:51;13.80;1.00
20233;DHT22;37438;55.674;13.074;2023-04-01T13:01:18;13.80;1.00
20233;DHT22;37438;55.674;13.074;2023-04-01T13:07:41;13.00;1.00
20233;DHT22;37438;55.674;13.074;2023-04-01T13:11:02;13.80;1.00
20233;DHT22;37438;55.674;13.074;2023-04-01T13:14:24;13.80;1.00
20233;DHT22;37438;55.674;13.074;2023-04-01T13:17:48;13.80;1.00
20233;DHT22;37438;55.674;13.074;2023-04-01T13:20:57;14.10;1.00
20233;DHT22;37438;55.674;13.074;2023-04-01T13:27:39;14.60;1.00
20233;DHT22;37438;55.674;13.074;2023-04-01T13:30:49;14.80;1.00
20233;DHT22;37438;55.674;13.074;2023-04-01T13:43:29;13.00;1.00
20233;DHT22;37438;55.674;13.074;2023-04-01T13:46:45;14.10;1.00
20233;DHT22;37438;55.674;13.074;2023-04-01T13:56:37;13.90;1.00
20233;DHT22;37438;55.674;13.074;2023-04-01T14:06:23;14.60;1.00
20233;DHT22;37438;55.674;13.074;2023-04-01T14:12:41;13.00;1.00
20233;DHT22;37438;55.674;13.074;2023-04-01T14:18:58;14.10;1.00
20233;DHT22;37438;55.674;13.074;2023-04-01T14:34:59;15.20;1.00
20233;DHT22;37438;55.674;13.074;2023-04-01T14:44:29;13.50;1.00
20233;DHT22;37438;55.674;13.074;2023-04-01T14:47:46;14.70;1.00
20233;DHT22;37438;55.674;13.074;2023-04-01T14:50:53;14.90;1.00
20233;DHT22;37438;55.674;13.074;2023-04-01T14:54:00;15.40;1.00
20233;DHT22;37438;55.674;13.074;2023-04-01T14:57:10;14.60;1.00
20233;DHT22;37438;55.674;13.074;2023-04-01T15:00:19;13.70;1.00
20233;DHT22;37438;55.674;13.074;2023-04-01T15:03:25;13.80;1.00
20233;DHT22;37438;55.674;13.074;2023-04-01T15:09:58;13.80;1.00
20233;DHT22;37438;55.674;13.074;2023-04-01T15:19:29;14.10;1.00
20233;DHT22;37438;55.674;13.074;2023-04-01T15:26:07;16.40;1.00
20233;DHT22;37438;55.674;13.074;2023-04-01T15:32:31;17.20;1.00
20233;DHT22;37438;55.674;13.074;2023-04-01T15:43:15;14.80;1.00
20233;DHT22;37438;55.674;13.074;2023-04-01T15:55:26;17.50;1.00
20233;DHT22;37438;55.674;13.074;2023-04-01T16:17:58;14.00;1.00
20233;DHT22;37438;55.674;13.074;2023-04-01T16:21:21;13.20;1.00
20233;DHT22;37438;55.674;13.074;2023-04-01T16:24:46;14.80;1.00
20233;DHT22;37438;55.674;13.074;2023-04-01T16:28:05;15.90;1.00
20233;DHT22;37438;55.674;13.074;2023-04-01T16:31:37;14.50;1.00
20233;DHT22;37438;55.674;13.074;2023-04-01T16:38:00;13.30;1.00
20233;DHT22;37438;55.674;13.074;2023-04-01T16:41:11;13.00;1.00
20233;DHT22;37438;55.674;13.074;2023-04-01T16:44:22;12.40;1.00
20233;DHT22;37438;55.674;13.074;2023-04-01T16:47:29;11.90;1.00
20233;DHT22;37438;55.674;13.074;2023-04-01T16:53:53;8.30;1.00
20233;DHT22;37438;55.674;13.074;2023-04-01T17:00:24;7.50;1.00
20233;DHT22;37438;55.674;13.074;2023-04-01T17:03:32;7.30;9.00
20233;DHT22;37438;55.674;13.074;2023-04-01T17:06:40;7.20;11.40
20233;DHT22;37438;55.674;13.074;2023-04-01T17:09:57;7.10;18.30
20233;DHT22;37438;55.674;13.074;2023-04-01T17:22:39;6.50;53.10
20233;DHT22;37438;55.674;13.074;2023-04-01T17:25:49;6.40;62.70
20233;DHT22;37438;55.674;13.074;2023-04-01T17:32:15;6.20;78.90
20233;DHT22;37438;55.674;13.074;2023-04-01T17:35:27;6.00;92.40
20233;DHT22;37438;55.674;13.074;2023-04-01T17:42:15;5.80;98.10
20233;DHT22;37438;55.674;13.074;2023-04-01T17:45:24;5.70;99.90
20233;DHT22;37438;55.674;13.074;2023-04-01T17:48:54;5.60;99.90
20233;DHT22;37438;55.674;13.074;2023-04-01T17:52:00;5.70;99.90
20233;DHT22;37438;55.674;13.074;2023-04-01T17:58:20;5.30;99.90
20233;DHT22;37438;55.674;13.074;2023-04-01T18:17:39;4.60;99.90
20233;DHT22;37438;55.674;13.074;2023-04-01T18:20:51;4.60;99.90
20233;DHT22;37438;55.674;13.074;2023-04-01T18:24:00;4.50;99.90
20233;DHT22;37438;55.674;13.074;2023-04-01T18:30:31;4.30;99.90
20233;DHT22;37438;55.674;13.074;2023-04-01T18:33:45;4.20;99.90
20233;DHT22;37438;55.674;13.074;2023-04-01T18:40:02;4.10;99.90
20233;DHT22;37438;55.674;13.074;2023-04-01T18:43:18;4.10;99.90
20233;DHT22;37438;55.674;13.074;2023-04-01T18:52:55;3.80;99.90
20233;DHT22;37438;55.674;13.074;2023-04-01T18:56:11;3.70;99.90
20233;DHT22;37438;55.674;13.074;2023-04-01T18:59:28;3.60;99.90
20233;DHT22;37438;55.674;13.074;2023-04-01T19:02:44;3.50;99.90
20233;DHT22;37438;55.674;13.074;2023-04-01T19:05:52;3.40;99.90
20233;DHT22;37438;55.674;13.074;2023-04-01T19:09:00;3.30;99.90
20233;DHT22;37438;55.674;13.074;2023-04-01T19:22:51;3.10;99.90
20233;DHT22;37438;55.674;13.074;2023-04-01T19:35:17;2.90;99.90
20233;DHT22;37438;55.674;13.074;2023-04-01T19:38:24;2.90;99.90
20233;DHT22;37438;55.674;13.074;2023-04-01T19:48:05;2.80;99.90
20233;DHT22;37438;55.674;13.074;2023-04-01T19:54:50;2.80;99.90
20233;DHT22;37438;55.674;13.074;2023-04-01T20:01:03;2.90;99.90
20233;DHT22;37438;55.674;13.074;2023-04-01T20:04:10;3.00;99.90
20233;DHT22;37438;55.674;13.074;2023-04-01T20:10:32;3.00;99.90
20233;DHT22;37438;55.674;13.074;2023-04-01T20:13:46;3.00;99.90
20233;DHT22;37438;55.674;13.074;2023-04-01T20:16:54;2.90;99.90
20233;DHT22;37438;55.674;13.074;2023-04-01T20:20:15;2.90;99.90
20233;DHT22;37438;55.674;13.074;2023-04-01T20:23:39;2.90;99.90
20233;DHT22;37438;55.674;13.074;2023-04-01T20:26:50;2.80;99.90
20233;DHT22;37438;55.674;13.074;2023-04-01T20:30:03;2.70;99.90
20233;DHT22;37438;55.674;13.074;2023-04-01T20:33:20;2.60;99.90
20233;DHT22;37438;55.674;13.074;2023-04-01T20:39:48;2.60;99.90
20233;DHT22;37438;55.674;13.074;2023-04-01T20:46:23;2.60;99.90
20233;DHT22;37438;55.674;13.074;2023-04-01T20:53:01;2.60;99.90
20233;DHT22;37438;55.674;13.074;2023-04-01T20:59:57;2.60;99.90
20233;DHT22;37438;55.674;13.074;2023-04-01T21:09:43;2.60;99.90
20233;DHT22;37438;55.674;13.074;2023-04-01T21:12:50;2.60;99.90
20233;DHT22;37438;55.674;13.074;2023-04-01T21:19:02;2.40;99.90
20233;DHT22;37438;55.674;13.074;2023-04-01T21:22:25;2.30;99.90
20233;DHT22;37438;55.674;13.074;2023-04-01T21:25:45;2.30;99.90
20233;DHT22;37438;55.674;13.074;2023-04-01T22:08:23;1.60;99.90
20233;DHT22;37438;55.674;13.074;2023-04-01T22:14:57;1.50;99.90
20233;DHT22;37438;55.674;13.074;2023-04-01T22:18:09;1.40;99.90
20233;DHT22;37438;55.674;13.074;2023-04-01T22:30:46;1.40;99.90
20233;DHT22;37438;55.674;13.074;2023-04-01T22:43:12;1.20;99.90
20233;DHT22;37438;55.674;13.074;2023-04-01T22:49:47;1.10;99.90
20233;DHT22;37438;55.674;13.074;2023-04-01T22:52:57;1.00;99.90
20233;DHT22;37438;55.674;13.074;2023-04-01T22:56:05;0.90;99.90
20233;DHT22;37438;55.674;13.074;2023-04-01T23:02:36;0.80;99.90
20233;DHT22;37438;55.674;13.074;2023-04-01T23:05:51;0.70;99.90
20233;DHT22;37438;55.674;13.074;2023-04-01T23:12:10;0.60;99.90
20233;DHT22;37438;55.674;13.074;2023-04-01T23:15:17;0.60;99.90
20233;DHT22;37438;55.674;13.074;2023-04-01T23:18:22;0.50;99.90
20233;DHT22;37438;55.674;13.074;2023-04-01T23:24:38;0.50;99.90
20233;DHT22;37438;55.674;13.074;2023-04-01T23:28:14;0.50;99.90
20233;DHT22;37438;55.674;13.074;2023-04-01T23:34:34;0.50;99.90
20233;DHT22;37438;55.674;13.074;2023-04-01T23:37:38;0.50;99.90
20233;DHT22;37438;55.674;13.074;2023-04-01T23:40:43;0.50;99.90
20233;DHT22;37438;55.674;13.074;2023-04-01T23:44:05;0.40;99.90
20233;DHT22;37438;55.674;13.074;2023-04-01T23:47:17;0.30;99.90
20233;DHT22;37438;55.674;13.074;2023-04-01T23:50:23;0.30;1.00
20233;DHT22;37438;55.674;13.074;2023-04-01T23:53:29;0.30;1.00
20233;DHT22;37438;55.674;13.074;2023-04-01T23:56:37;0.30;1.00
20233;DHT22;37438;55.674;13.074;2023-04-01T23:59:42;0.20;1.00
